createdAt,value
2022-09-28T00:01:15.641Z,99.90
2022-09-28T00:03:49.364Z,99.90
2022-09-28T00:06:24.477Z,99.90
2022-09-28T00:08:57.626Z,99.90
2022-09-28T00:11:48.302Z,99.90
2022-09-28T00:14:21.029Z,99.90
2022-09-28T00:16:53.132Z,99.90
2022-09-28T00:19:25.055Z,99.90
2022-09-28T00:21:56.961Z,99.90
2022-09-28T00:24:29.557Z,99.90
2022-09-28T00:27:02.915Z,99.90
2022-09-28T00:29:37.124Z,99.90
2022-09-28T00:32:13.929Z,99.90
2022-09-28T00:34:46.351Z,99.90
2022-09-28T00:37:19.872Z,99.90
2022-09-28T00:39:51.862Z,99.90
2022-09-28T00:42:25.812Z,99.90
2022-09-28T00:44:59.141Z,99.90
2022-09-28T00:48:00.574Z,99.90
2022-09-28T00:50:36.628Z,99.90
2022-09-28T00:53:18.872Z,99.90
2022-09-28T00:55:55.298Z,99.90
2022-09-28T00:58:31.336Z,99.90
2022-09-28T01:01:04.440Z,99.90
2022-09-28T01:03:38.339Z,99.90
2022-09-28T01:06:10.783Z,99.90
2022-09-28T01:08:44.665Z,99.90
2022-09-28T01:11:19.602Z,99.90
2022-09-28T01:13:56.681Z,99.90
2022-09-28T01:16:49.513Z,99.90
2022-09-28T01:19:51.533Z,99.90
2022-09-28T01:23:01.414Z,99.90
2022-09-28T01:25:58.407Z,99.90
2022-09-28T01:28:31.203Z,99.90
2022-09-28T01:31:10.258Z,99.90
2022-09-28T01:33:45.990Z,99.90
2022-09-28T01:36:36.755Z,99.90
2022-09-28T01:39:16.348Z,99.90
2022-09-28T01:41:52.421Z,99.90
2022-09-28T01:44:26.039Z,99.90
2022-09-28T01:47:04.287Z,99.90
2022-09-28T01:49:45.306Z,99.90
2022-09-28T01:52:33.079Z,99.90
2022-09-28T01:55:11.384Z,99.90
2022-09-28T01:57:52.881Z,99.90
2022-09-28T02:00:26.299Z,99.90
2022-09-28T02:03:12.584Z,99.90
2022-09-28T02:05:55.298Z,99.90
2022-09-28T02:08:33.391Z,99.90
2022-09-28T02:11:13.922Z,99.90
2022-09-28T02:14:05.573Z,99.90
2022-09-28T02:16:41.686Z,99.90
2022-09-28T02:19:19.676Z,99.90
2022-09-28T02:22:04.545Z,99.90
2022-09-28T02:24:58.486Z,99.90
2022-09-28T02:28:00.302Z,99.90
2022-09-28T02:30:35.729Z,99.90
2022-09-28T02:33:16.535Z,99.90
2022-09-28T02:35:48.831Z,99.90
2022-09-28T02:38:22.251Z,99.90
2022-09-28T02:41:34.899Z,99.90
2022-09-28T02:45:03.929Z,99.90
2022-09-28T02:47:43.636Z,99.90
2022-09-28T02:50:37.910Z,99.90
2022-09-28T02:53:44.211Z,99.90
2022-09-28T02:56:52.279Z,99.90
2022-09-28T02:59:39.902Z,99.90
2022-09-28T03:02:14.552Z,99.90
2022-09-28T03:05:11.164Z,99.90
2022-09-28T03:07:59.735Z,99.90
2022-09-28T03:10:46.751Z,99.90
2022-09-28T03:13:20.486Z,99.90
2022-09-28T03:15:52.421Z,99.90
2022-09-28T03:18:24.559Z,99.90
2022-09-28T03:20:56.721Z,99.90
2022-09-28T03:23:28.664Z,99.90
2022-09-28T03:26:00.662Z,99.90
2022-09-28T03:28:36.313Z,99.90
2022-09-28T03:31:08.993Z,99.90
2022-09-28T03:33:41.267Z,99.90
2022-09-28T03:36:15.136Z,99.90
2022-09-28T03:38:47.025Z,99.90
2022-09-28T03:41:18.934Z,99.90
2022-09-28T03:43:51.121Z,99.90
2022-09-28T03:46:23.142Z,99.90
2022-09-28T03:48:59.263Z,99.90
2022-09-28T03:51:31.154Z,99.90
2022-09-28T03:54:03.086Z,99.90
2022-09-28T03:56:35.561Z,99.90
2022-09-28T03:59:07.780Z,99.90
2022-09-28T04:01:41.283Z,99.90
2022-09-28T04:04:14.159Z,99.90
2022-09-28T04:06:46.082Z,99.90
2022-09-28T04:09:18.031Z,99.90
2022-09-28T04:12:03.337Z,99.90
2022-09-28T04:14:36.919Z,99.90
2022-09-28T04:17:09.195Z,99.90
2022-09-28T04:19:43.173Z,99.90
2022-09-28T04:22:24.326Z,99.90
2022-09-28T04:24:56.146Z,99.90
2022-09-28T04:27:46.885Z,99.90
2022-09-28T04:30:18.756Z,99.90
2022-09-28T04:32:50.836Z,99.90
2022-09-28T04:35:22.820Z,99.90
2022-09-28T04:37:55.090Z,99.90
2022-09-28T04:40:27.093Z,99.90
2022-09-28T04:42:59.140Z,99.90
2022-09-28T04:45:31.084Z,99.90
2022-09-28T04:48:10.555Z,99.90
2022-09-28T04:50:59.048Z,99.90
2022-09-28T04:53:31.650Z,99.90
2022-09-28T04:56:11.634Z,99.90
2022-09-28T04:58:50.302Z,99.90
2022-09-28T05:01:24.711Z,99.90
2022-09-28T05:04:02.426Z,99.90
2022-09-28T05:07:01.480Z,99.90
2022-09-28T05:09:37.670Z,99.90
2022-09-28T05:12:10.357Z,99.90
2022-09-28T05:14:42.743Z,99.90
2022-09-28T05:17:14.560Z,99.90
2022-09-28T05:20:21.769Z,99.90
2022-09-28T05:22:53.676Z,99.90
2022-09-28T05:25:26.265Z,99.90
2022-09-28T05:28:07.898Z,99.90
2022-09-28T05:30:58.062Z,99.90
2022-09-28T05:33:41.696Z,99.90
2022-09-28T05:36:18.380Z,99.90
2022-09-28T05:38:50.274Z,99.90
2022-09-28T05:41:22.213Z,99.90
2022-09-28T05:43:55.059Z,99.90
2022-09-28T05:46:27.680Z,99.90
2022-09-28T05:49:00.382Z,99.90
2022-09-28T05:51:32.861Z,99.90
2022-09-28T05:54:06.197Z,99.90
2022-09-28T05:56:41.309Z,99.90
2022-09-28T05:59:13.756Z,99.90
2022-09-28T06:01:46.652Z,99.90
2022-09-28T06:04:19.483Z,99.90
2022-09-28T06:06:53.206Z,99.90
2022-09-28T06:09:26.199Z,99.90
2022-09-28T06:12:07.169Z,99.90
2022-09-28T06:14:51.016Z,99.90
2022-09-28T06:17:23.038Z,99.90
2022-09-28T06:20:14.856Z,99.90
2022-09-28T06:23:01.153Z,99.90
2022-09-28T06:25:33.244Z,99.90
2022-09-28T06:28:09.951Z,99.90
2022-09-28T06:30:43.630Z,99.90
2022-09-28T06:33:18.003Z,99.90
2022-09-28T06:35:52.138Z,99.90
2022-09-28T06:38:24.086Z,99.90
2022-09-28T06:40:57.680Z,99.90
2022-09-28T06:43:34.252Z,99.90
2022-09-28T06:46:32.784Z,99.90
2022-09-28T06:49:31.049Z,99.90
2022-09-28T06:52:31.570Z,99.90
2022-09-28T06:55:22.799Z,99.90
2022-09-28T06:58:09.527Z,99.90
2022-09-28T07:00:41.995Z,99.90
2022-09-28T07:03:16.229Z,99.90
2022-09-28T07:06:06.743Z,99.90
2022-09-28T07:09:06.844Z,99.90
2022-09-28T07:12:25.441Z,99.90
2022-09-28T07:15:07.391Z,99.90
2022-09-28T07:17:53.098Z,99.90
2022-09-28T07:20:43.265Z,99.90
2022-09-28T07:23:20.100Z,99.90
2022-09-28T07:26:24.781Z,99.90
2022-09-28T07:29:19.780Z,99.90
2022-09-28T07:32:17.732Z,99.90
2022-09-28T07:35:19.949Z,99.90
2022-09-28T07:38:00.349Z,99.90
2022-09-28T07:40:53.360Z,99.90
2022-09-28T07:43:25.749Z,99.90
2022-09-28T07:45:59.030Z,99.90
2022-09-28T07:48:36.710Z,99.90
2022-09-28T07:51:44.771Z,99.90
2022-09-28T07:54:52.108Z,99.90
2022-09-28T07:57:39.994Z,99.90
2022-09-28T08:00:34.770Z,99.90
2022-09-28T08:03:07.287Z,99.90
2022-09-28T08:05:39.600Z,99.90
2022-09-28T08:08:11.511Z,99.90
2022-09-28T08:10:46.936Z,99.90
2022-09-28T08:13:48.343Z,99.90
2022-09-28T08:16:40.893Z,99.90
2022-09-28T08:19:19.532Z,99.90
2022-09-28T08:21:52.825Z,99.90
2022-09-28T08:24:24.808Z,99.90
2022-09-28T08:26:58.974Z,99.90
2022-09-28T08:29:33.495Z,99.90
2022-09-28T08:32:35.793Z,99.90
2022-09-28T08:35:26.524Z,99.90
2022-09-28T08:38:15.435Z,99.90
2022-09-28T08:41:32.307Z,99.90
2022-09-28T08:44:25.096Z,99.90
2022-09-28T08:47:54.565Z,99.90
2022-09-28T08:51:00.731Z,99.90
2022-09-28T08:54:29.549Z,99.90
2022-09-28T08:57:11.907Z,99.80
2022-09-28T08:59:59.741Z,99.10
2022-09-28T09:02:39.803Z,99.50
2022-09-28T09:05:39.502Z,99.00
2022-09-28T09:08:31.063Z,98.30
2022-09-28T09:11:43.829Z,98.80
2022-09-28T09:14:38.976Z,98.70
2022-09-28T09:17:23.235Z,97.40
2022-09-28T09:20:13.399Z,98.20
2022-09-28T09:23:32.079Z,98.60
2022-09-28T09:26:22.517Z,97.20
2022-09-28T09:28:59.856Z,98.30
2022-09-28T09:32:03.021Z,98.10
2022-09-28T09:34:47.313Z,98.50
2022-09-28T09:37:40.879Z,98.40
2022-09-28T09:40:48.235Z,97.80
2022-09-28T09:44:16.367Z,97.90
2022-09-28T09:47:31.301Z,97.10
2022-09-28T09:50:31.505Z,97.20
2022-09-28T09:53:36.185Z,97.40
2022-09-28T09:56:44.218Z,96.60
2022-09-28T09:59:33.716Z,96.20
2022-09-28T10:02:34.988Z,95.40
2022-09-28T10:05:25.511Z,94.70
2022-09-28T10:08:10.896Z,94.20
2022-09-28T10:11:02.346Z,95.30
2022-09-28T10:13:35.514Z,95.10
2022-09-28T10:16:14.376Z,94.90
2022-09-28T10:18:55.821Z,94.20
2022-09-28T10:21:51.924Z,94.40
2022-09-28T10:24:46.054Z,93.40
2022-09-28T10:27:33.760Z,94.40
2022-09-28T10:30:17.649Z,95.00
2022-09-28T10:32:53.793Z,95.30
2022-09-28T10:35:29.569Z,95.60
2022-09-28T10:38:07.420Z,95.50
2022-09-28T10:41:00.622Z,96.10
2022-09-28T10:44:07.166Z,96.70
2022-09-28T10:46:56.779Z,96.20
2022-09-28T10:49:37.562Z,96.00
2022-09-28T10:52:45.181Z,95.00
2022-09-28T10:55:32.639Z,95.50
2022-09-28T10:58:26.142Z,95.80
2022-09-28T11:01:05.872Z,95.60
2022-09-28T11:03:54.610Z,96.50
2022-09-28T11:06:41.844Z,95.80
2022-09-28T11:09:34.803Z,96.10
2022-09-28T11:12:16.627Z,95.60
2022-09-28T11:14:55.502Z,96.10
2022-09-28T11:17:32.718Z,95.60
2022-09-28T11:20:28.351Z,94.90
2022-09-28T11:23:29.489Z,94.60
2022-09-28T11:26:11.923Z,95.70
2022-09-28T11:28:50.539Z,96.20
2022-09-28T11:31:29.246Z,95.70
2022-09-28T11:34:41.804Z,94.50
2022-09-28T11:38:09.898Z,95.60
2022-09-28T11:41:55.591Z,95.90
2022-09-28T11:44:44.559Z,96.50
2022-09-28T11:47:51.233Z,97.00
2022-09-28T11:50:45.492Z,96.70
2022-09-28T11:53:31.499Z,96.10
2022-09-28T11:56:29.367Z,96.60
2022-09-28T11:59:18.732Z,96.00
2022-09-28T12:01:56.826Z,95.90
2022-09-28T12:04:43.985Z,96.30
2022-09-28T12:07:35.675Z,96.50
2022-09-28T12:10:23.623Z,96.10
2022-09-28T12:13:28.835Z,95.70
2022-09-28T12:16:38.486Z,95.00
2022-09-28T12:19:20.764Z,94.10
2022-09-28T12:21:59.605Z,94.90
2022-09-28T12:24:50.854Z,95.20
2022-09-28T12:27:50.554Z,96.00
2022-09-28T12:30:27.159Z,96.10
2022-09-28T12:33:04.718Z,95.60
2022-09-28T12:36:03.951Z,94.80
2022-09-28T12:39:17.423Z,95.10
2022-09-28T12:41:54.852Z,96.20
2022-09-28T12:45:00.685Z,96.00
2022-09-28T12:48:10.446Z,95.80
2022-09-28T12:51:00.510Z,96.50
2022-09-28T12:53:51.328Z,95.50
2022-09-28T12:57:06.432Z,96.10
2022-09-28T13:00:15.898Z,96.10
2022-09-28T13:03:13.361Z,96.40
2022-09-28T13:06:11.104Z,96.30
2022-09-28T13:08:48.514Z,96.40
2022-09-28T13:11:33.267Z,96.90
2022-09-28T13:14:10.935Z,97.00
2022-09-28T13:17:22.758Z,97.40
2022-09-28T13:19:58.141Z,97.20
2022-09-28T13:23:02.366Z,96.80
2022-09-28T13:25:36.409Z,97.50
2022-09-28T13:28:11.481Z,97.50
2022-09-28T13:30:45.192Z,97.90
2022-09-28T13:33:33.759Z,97.90
2022-09-28T13:36:30.538Z,98.50
2022-09-28T13:39:02.527Z,99.20
2022-09-28T13:41:38.011Z,98.80
2022-09-28T13:44:13.171Z,98.90
2022-09-28T13:47:11.403Z,98.70
2022-09-28T13:49:48.759Z,98.90
2022-09-28T13:52:20.571Z,98.80
2022-09-28T13:54:58.099Z,98.30
2022-09-28T13:57:35.975Z,98.60
2022-09-28T14:00:19.242Z,98.00
2022-09-28T14:02:58.870Z,98.20
2022-09-28T14:05:53.802Z,97.90
2022-09-28T14:08:34.686Z,98.20
2022-09-28T14:11:40.238Z,98.40
2022-09-28T14:14:13.778Z,98.60
2022-09-28T14:16:45.726Z,98.60
2022-09-28T14:19:31.377Z,98.30
2022-09-28T14:22:15.034Z,98.00
2022-09-28T14:24:49.961Z,98.30
2022-09-28T14:28:00.307Z,98.30
2022-09-28T14:30:38.177Z,98.40
2022-09-28T14:33:19.376Z,97.90
2022-09-28T14:36:02.274Z,98.20
2022-09-28T14:39:18.943Z,98.30
2022-09-28T14:41:52.243Z,97.70
2022-09-28T14:44:25.009Z,98.00
2022-09-28T14:47:34.174Z,97.80
2022-09-28T14:50:23.249Z,97.20
2022-09-28T14:53:04.340Z,97.90
2022-09-28T14:55:42.219Z,97.90
2022-09-28T14:58:22.550Z,97.80
2022-09-28T15:01:02.845Z,98.30
2022-09-28T15:03:38.251Z,98.40
2022-09-28T15:06:16.666Z,98.00
2022-09-28T15:08:48.705Z,98.60
2022-09-28T15:11:24.149Z,99.30
2022-09-28T15:14:07.338Z,99.50
2022-09-28T15:16:39.201Z,99.40
2022-09-28T15:19:22.835Z,99.70
2022-09-28T15:21:54.987Z,99.90
2022-09-28T15:24:33.579Z,99.90
2022-09-28T15:27:15.631Z,99.90
2022-09-28T15:30:01.757Z,99.90
2022-09-28T15:32:33.699Z,99.90
2022-09-28T15:35:26.318Z,99.90
2022-09-28T15:37:58.318Z,99.90
2022-09-28T15:40:37.803Z,99.90
2022-09-28T15:43:29.093Z,99.90
2022-09-28T15:46:18.479Z,99.90
2022-09-28T15:48:55.406Z,99.90
2022-09-28T15:51:28.999Z,99.90
2022-09-28T15:54:09.477Z,99.90
2022-09-28T15:56:59.687Z,99.90
2022-09-28T15:59:39.648Z,99.90
2022-09-28T16:02:25.277Z,99.90
2022-09-28T16:05:00.546Z,99.90
2022-09-28T16:07:40.775Z,99.90
2022-09-28T16:10:12.588Z,99.90
2022-09-28T16:12:48.595Z,99.90
2022-09-28T16:15:21.576Z,99.90
2022-09-28T16:18:06.947Z,99.90
2022-09-28T16:20:43.243Z,99.90
2022-09-28T16:23:19.801Z,99.90
2022-09-28T16:26:03.049Z,99.90
2022-09-28T16:28:37.636Z,99.90
2022-09-28T16:31:12.458Z,99.90
2022-09-28T16:34:11.549Z,99.90
2022-09-28T16:36:46.082Z,99.90
2022-09-28T16:39:19.585Z,99.90
2022-09-28T16:41:59.527Z,99.90
2022-09-28T16:44:32.987Z,99.90
2022-09-28T16:47:06.369Z,99.90
2022-09-28T16:49:39.988Z,99.90
2022-09-28T16:52:41.759Z,99.90
2022-09-28T16:55:38.933Z,99.90
2022-09-28T16:58:08.634Z,99.90
2022-09-28T17:00:43.508Z,99.90
2022-09-28T17:03:18.449Z,99.90
2022-09-28T17:05:51.523Z,99.90
2022-09-28T17:08:25.171Z,99.90
2022-09-28T17:11:14.921Z,99.90
2022-09-28T17:13:48.664Z,99.90
2022-09-28T17:16:43.570Z,99.90
2022-09-28T17:19:25.596Z,99.90
2022-09-28T17:21:57.572Z,99.90
2022-09-28T17:24:29.526Z,99.90
2022-09-28T17:27:03.293Z,99.90
2022-09-28T17:29:35.166Z,99.90
2022-09-28T17:32:17.307Z,99.90
2022-09-28T17:35:00.726Z,99.90
2022-09-28T17:37:36.272Z,99.90
2022-09-28T17:40:28.296Z,99.90
2022-09-28T17:43:01.090Z,99.90
2022-09-28T17:45:39.035Z,99.90
2022-09-28T17:48:15.867Z,99.90
2022-09-28T17:50:48.301Z,99.90
2022-09-28T17:53:20.218Z,99.90
2022-09-28T17:55:52.724Z,99.90
2022-09-28T17:58:24.782Z,99.90
2022-09-28T18:00:56.597Z,99.90
2022-09-28T18:03:28.474Z,99.90
2022-09-28T18:06:06.625Z,99.90
2022-09-28T18:08:38.786Z,99.90
2022-09-28T18:11:11.503Z,99.90
2022-09-28T18:13:45.989Z,99.90
2022-09-28T18:16:19.559Z,99.90
2022-09-28T18:18:51.460Z,99.90
2022-09-28T18:21:23.480Z,99.90
2022-09-28T18:23:55.419Z,99.90
2022-09-28T18:26:27.359Z,99.90
2022-09-28T18:28:59.243Z,99.90
2022-09-28T18:31:31.127Z,99.90
2022-09-28T18:34:02.978Z,99.90
2022-09-28T18:36:35.888Z,99.90
2022-09-28T18:39:07.778Z,99.90
2022-09-28T18:41:39.758Z,99.90
2022-09-28T18:44:11.572Z,99.90
2022-09-28T18:46:43.633Z,99.90
2022-09-28T18:49:15.597Z,99.90
2022-09-28T18:51:47.763Z,99.90
2022-09-28T18:54:19.690Z,99.90
2022-09-28T18:56:56.272Z,99.90
2022-09-28T18:59:28.442Z,99.90
2022-09-28T19:02:01.699Z,99.90
2022-09-28T19:04:33.731Z,99.90
2022-09-28T19:07:06.587Z,99.90
2022-09-28T19:09:43.857Z,99.90
2022-09-28T19:12:15.998Z,99.90
2022-09-28T19:14:47.849Z,99.90
2022-09-28T19:17:19.800Z,99.90
2022-09-28T19:19:52.100Z,99.90
2022-09-28T19:22:23.938Z,99.90
2022-09-28T19:24:55.879Z,99.90
2022-09-28T19:27:27.715Z,99.90
2022-09-28T19:29:59.561Z,99.90
2022-09-28T19:32:31.415Z,99.90
2022-09-28T19:35:04.133Z,99.90
2022-09-28T19:37:39.457Z,99.90
2022-09-28T19:40:11.358Z,99.90
2022-09-28T19:42:43.155Z,99.90
2022-09-28T19:45:15.107Z,99.90
2022-09-28T19:47:49.181Z,99.90
2022-09-28T19:50:21.274Z,99.90
2022-09-28T19:52:53.292Z,99.90
2022-09-28T19:55:25.122Z,99.90
2022-09-28T19:57:57.112Z,99.90
2022-09-28T20:00:29.059Z,99.90
2022-09-28T20:03:00.987Z,99.90
2022-09-28T20:05:32.893Z,99.90
2022-09-28T20:08:05.097Z,99.90
2022-09-28T20:10:37.003Z,99.90
2022-09-28T20:13:08.847Z,99.90
2022-09-28T20:15:41.584Z,99.90
2022-09-28T20:18:13.778Z,99.90
2022-09-28T20:20:45.611Z,99.90
2022-09-28T20:23:17.782Z,99.90
2022-09-28T20:25:52.728Z,99.90
2022-09-28T20:28:25.087Z,99.90
2022-09-28T20:31:12.365Z,99.90
2022-09-28T20:33:44.642Z,99.90
2022-09-28T20:36:22.133Z,99.90
2022-09-28T20:38:54.691Z,99.90
2022-09-28T20:41:27.451Z,99.90
2022-09-28T20:44:04.165Z,99.90
2022-09-28T20:46:38.223Z,99.90
2022-09-28T20:49:10.320Z,99.90
2022-09-28T20:51:42.238Z,99.90
2022-09-28T20:54:14.272Z,99.90
2022-09-28T20:56:48.195Z,99.90
2022-09-28T20:59:22.874Z,99.90
2022-09-28T21:01:54.779Z,99.90
2022-09-28T21:04:27.074Z,99.90
2022-09-28T21:06:58.902Z,99.90
2022-09-28T21:09:32.155Z,99.90
2022-09-28T21:12:05.004Z,99.90
2022-09-28T21:14:36.823Z,99.90
2022-09-28T21:17:08.648Z,99.90
2022-09-28T21:19:40.596Z,99.90
2022-09-28T21:22:12.486Z,99.90
2022-09-28T21:24:44.385Z,99.90
2022-09-28T21:27:16.603Z,99.90
2022-09-28T21:29:48.516Z,99.90
2022-09-28T21:32:20.423Z,99.90
2022-09-28T21:34:52.572Z,99.90
2022-09-28T21:37:24.397Z,99.90
2022-09-28T21:39:56.365Z,99.90
2022-09-28T21:42:28.215Z,99.90
2022-09-28T21:45:00.049Z,99.90
2022-09-28T21:47:31.967Z,99.90
2022-09-28T21:50:04.028Z,99.90
2022-09-28T21:52:36.270Z,99.90
2022-09-28T21:55:08.655Z,99.90
2022-09-28T21:57:40.523Z,99.90
2022-09-28T22:00:14.222Z,99.90
2022-09-28T22:02:46.377Z,99.90
2022-09-28T22:05:19.210Z,99.90
2022-09-28T22:07:51.099Z,99.90
2022-09-28T22:10:22.981Z,99.90
2022-09-28T22:12:54.869Z,99.90
2022-09-28T22:15:26.718Z,99.90
2022-09-28T22:17:58.537Z,99.90
2022-09-28T22:20:30.391Z,99.90
2022-09-28T22:23:02.211Z,99.90
2022-09-28T22:25:35.584Z,99.90
2022-09-28T22:28:07.465Z,99.90
2022-09-28T22:30:39.316Z,99.90
2022-09-28T22:33:11.164Z,99.90
2022-09-28T22:35:42.996Z,99.90
2022-09-28T22:38:15.639Z,99.90
2022-09-28T22:40:49.186Z,99.90
2022-09-28T22:43:23.339Z,99.90
2022-09-28T22:46:07.254Z,99.90
2022-09-28T22:48:39.716Z,99.90
2022-09-28T22:51:11.727Z,99.90
2022-09-28T22:53:44.009Z,99.90
2022-09-28T22:56:19.059Z,99.90
2022-09-28T22:58:51.223Z,99.90
2022-09-28T23:01:26.003Z,99.90
2022-09-28T23:03:59.511Z,99.90
2022-09-28T23:06:33.048Z,99.90
2022-09-28T23:09:05.155Z,99.90
2022-09-28T23:11:37.334Z,99.90
2022-09-28T23:14:11.128Z,99.90
2022-09-28T23:16:42.933Z,99.90
2022-09-28T23:19:14.834Z,99.90
2022-09-28T23:21:46.648Z,99.90
2022-09-28T23:24:18.950Z,99.90
2022-09-28T23:26:50.859Z,99.90
2022-09-28T23:29:22.780Z,99.90
2022-09-28T23:31:54.638Z,99.90
2022-09-28T23:34:26.459Z,99.90
2022-09-28T23:36:58.251Z,99.90
2022-09-28T23:39:30.064Z,99.90
2022-09-28T23:42:02.723Z,99.90
2022-09-28T23:44:36.522Z,99.90
2022-09-28T23:47:17.108Z,99.90
2022-09-28T23:49:49.011Z,99.90
2022-09-28T23:52:20.911Z,99.90
2022-09-28T23:54:52.822Z,99.90
2022-09-28T23:57:25.385Z,99.90
2022-09-28T23:59:57.364Z,99.90
